createdAt,value
2022-08-12T00:00:47.016Z,16.70
2022-08-12T00:03:32.413Z,16.80
2022-08-12T00:06:17.891Z,16.70
2022-08-12T00:09:03.203Z,16.50
2022-08-12T00:11:48.663Z,16.40
2022-08-12T00:14:33.990Z,16.30
2022-08-12T00:17:19.140Z,16.30
2022-08-12T00:20:04.581Z,16.40
2022-08-12T00:22:58.589Z,16.30
2022-08-12T00:26:20.749Z,16.20
2022-08-12T00:28:58.921Z,16.20
2022-08-12T00:31:44.404Z,16.30
2022-08-12T00:34:33.488Z,16.20
2022-08-12T00:37:18.675Z,16.10
2022-08-12T00:40:06.496Z,16.20
2022-08-12T00:42:40.038Z,16.20
2022-08-12T00:45:07.037Z,16.20
2022-08-12T00:47:34.169Z,16.30
2022-08-12T00:50:01.517Z,16.20
2022-08-12T00:52:28.238Z,16.20
2022-08-12T00:54:57.540Z,16.30
2022-08-12T00:57:32.032Z,16.20
2022-08-12T01:00:00.419Z,16.00
2022-08-12T01:02:28.542Z,15.90
2022-08-12T01:05:27.901Z,15.90
2022-08-12T01:08:13.849Z,15.90
2022-08-12T01:11:00.677Z,16.00
2022-08-12T01:13:28.247Z,16.10
2022-08-12T01:15:59.519Z,16.10
2022-08-12T01:18:27.993Z,16.00
2022-08-12T01:21:16.627Z,15.90
2022-08-12T01:23:50.105Z,15.80
2022-08-12T01:26:18.389Z,15.70
2022-08-12T01:28:46.671Z,15.80
2022-08-12T01:31:16.497Z,15.80
2022-08-12T01:33:46.587Z,15.80
2022-08-12T01:36:14.175Z,15.90
2022-08-12T01:38:43.773Z,15.80
2022-08-12T01:41:11.418Z,15.80
2022-08-12T01:43:39.121Z,15.70
2022-08-12T01:46:25.310Z,15.60
2022-08-12T01:49:02.391Z,15.70
2022-08-12T01:52:15.666Z,15.60
2022-08-12T01:54:30.221Z,15.60
2022-08-12T01:57:15.629Z,15.60
2022-08-12T02:00:06.119Z,15.60
2022-08-12T02:02:48.051Z,15.50
2022-08-12T02:05:52.313Z,15.50
2022-08-12T02:08:52.298Z,15.50
2022-08-12T02:11:29.283Z,15.40
2022-08-12T02:14:05.488Z,15.40
2022-08-12T02:16:41.354Z,15.40
2022-08-12T02:19:22.270Z,15.30
2022-08-12T02:22:08.862Z,15.30
2022-08-12T02:24:37.698Z,15.30
2022-08-12T02:27:08.185Z,15.20
2022-08-12T02:29:39.534Z,15.20
2022-08-12T02:32:06.797Z,15.20
2022-08-12T02:34:33.984Z,15.20
2022-08-12T02:37:03.795Z,15.20
2022-08-12T02:39:31.292Z,15.20
2022-08-12T02:42:00.352Z,15.20
2022-08-12T02:44:28.216Z,15.20
2022-08-12T02:46:56.740Z,15.10
2022-08-12T02:49:31.289Z,15.10
2022-08-12T02:52:01.051Z,15.10
2022-08-12T02:54:27.753Z,15.00
2022-08-12T02:56:54.661Z,14.90
2022-08-12T02:59:22.864Z,14.80
2022-08-12T03:01:50.762Z,14.80
2022-08-12T03:04:26.739Z,14.70
2022-08-12T03:07:01.230Z,14.70
2022-08-12T03:09:38.204Z,14.70
2022-08-12T03:12:20.446Z,14.80
2022-08-12T03:14:51.345Z,14.80
2022-08-12T03:17:22.024Z,14.80
2022-08-12T03:20:09.454Z,14.80
2022-08-12T03:22:40.782Z,14.80
2022-08-12T03:25:12.329Z,14.90
2022-08-12T03:27:51.576Z,14.80
2022-08-12T03:30:19.570Z,14.60
2022-08-12T03:32:47.549Z,14.50
2022-08-12T03:35:36.900Z,14.50
2022-08-12T03:38:08.049Z,14.50
2022-08-12T03:41:08.563Z,14.50
2022-08-12T03:43:57.437Z,14.50
2022-08-12T03:46:46.813Z,14.70
2022-08-12T03:49:32.137Z,14.60
2022-08-12T03:52:17.561Z,14.50
2022-08-12T03:55:02.761Z,14.50
2022-08-12T03:57:48.484Z,14.40
2022-08-12T04:00:24.789Z,14.40
2022-08-12T04:03:24.364Z,14.30
2022-08-12T04:05:55.310Z,14.40
2022-08-12T04:08:24.590Z,14.30
2022-08-12T04:11:09.777Z,14.30
2022-08-12T04:13:36.484Z,14.30
2022-08-12T04:16:04.280Z,14.20
2022-08-12T04:18:31.757Z,14.20
2022-08-12T04:20:58.563Z,14.30
2022-08-12T04:23:25.792Z,14.30
2022-08-12T04:25:52.535Z,14.20
2022-08-12T04:28:25.000Z,14.20
2022-08-12T04:30:52.069Z,14.10
2022-08-12T04:33:19.568Z,14.20
2022-08-12T04:35:47.131Z,14.20
2022-08-12T04:38:13.899Z,14.20
2022-08-12T04:40:40.674Z,14.20
2022-08-12T04:44:00.596Z,14.20
2022-08-12T04:45:54.048Z,14.10
2022-08-12T04:48:20.853Z,14.10
2022-08-12T04:50:50.140Z,14.10
2022-08-12T04:53:16.971Z,14.20
2022-08-12T04:55:45.755Z,14.10
2022-08-12T04:58:12.711Z,14.10
2022-08-12T05:00:41.750Z,14.20
2022-08-12T05:03:08.853Z,14.20
2022-08-12T05:05:36.840Z,14.10
2022-08-12T05:08:04.226Z,14.10
2022-08-12T05:10:33.612Z,14.00
2022-08-12T05:13:03.121Z,13.90
2022-08-12T05:15:30.456Z,13.90
2022-08-12T05:18:00.111Z,14.00
2022-08-12T05:20:29.610Z,14.00
2022-08-12T05:23:13.182Z,14.10
2022-08-12T05:25:43.124Z,14.30
2022-08-12T05:28:10.382Z,14.30
2022-08-12T05:30:37.018Z,14.40
2022-08-12T05:33:07.206Z,14.50
2022-08-12T05:35:39.969Z,14.60
2022-08-12T05:38:25.681Z,14.70
2022-08-12T05:40:52.423Z,14.70
2022-08-12T05:43:19.159Z,14.60
2022-08-12T05:45:46.696Z,14.60
2022-08-12T05:48:13.966Z,14.70
2022-08-12T05:50:41.295Z,14.70
2022-08-12T05:53:08.154Z,14.80
2022-08-12T05:55:35.670Z,15.00
2022-08-12T05:58:03.158Z,15.10
2022-08-12T06:00:31.848Z,15.20
2022-08-12T06:03:02.259Z,15.30
2022-08-12T06:05:29.660Z,15.50
2022-08-12T06:08:02.277Z,15.60
2022-08-12T06:10:32.562Z,15.80
2022-08-12T06:13:02.965Z,16.00
2022-08-12T06:15:30.400Z,16.30
2022-08-12T06:18:13.806Z,16.50
2022-08-12T06:20:46.554Z,16.70
2022-08-12T06:23:15.293Z,16.90
2022-08-12T06:25:43.497Z,17.00
2022-08-12T06:28:17.423Z,17.10
2022-08-12T06:30:57.342Z,17.20
2022-08-12T06:33:59.557Z,17.40
2022-08-12T06:36:21.062Z,17.50
2022-08-12T06:38:49.204Z,17.60
2022-08-12T06:41:34.795Z,17.70
2022-08-12T06:44:06.470Z,17.80
2022-08-12T06:46:36.849Z,18.00
2022-08-12T06:49:03.835Z,18.00
2022-08-12T06:51:31.106Z,18.20
2022-08-12T06:53:58.774Z,18.30
2022-08-12T06:56:45.980Z,18.30
2022-08-12T06:59:14.660Z,18.40
2022-08-12T07:01:41.430Z,18.50
2022-08-12T07:04:35.793Z,18.70
2022-08-12T07:07:05.418Z,18.90
2022-08-12T07:10:05.057Z,19.10
2022-08-12T07:12:19.551Z,19.20
2022-08-12T07:14:51.487Z,19.30
2022-08-12T07:17:18.679Z,19.50
2022-08-12T07:19:48.544Z,19.60
2022-08-12T07:22:16.076Z,19.80
2022-08-12T07:24:42.790Z,19.90
2022-08-12T07:27:09.640Z,19.90
2022-08-12T07:29:57.876Z,20.00
2022-08-12T07:32:25.635Z,20.20
2022-08-12T07:34:56.410Z,20.20
2022-08-12T07:37:23.552Z,20.20
2022-08-12T07:39:51.176Z,20.30
2022-08-12T07:42:26.417Z,20.30
2022-08-12T07:44:53.260Z,20.50
2022-08-12T07:47:20.052Z,20.40
2022-08-12T07:50:03.280Z,20.50
2022-08-12T07:52:31.164Z,20.70
2022-08-12T08:01:18.543Z,22.50
2022-08-12T08:04:12.964Z,23.00
2022-08-12T08:08:20.963Z,24.10
2022-08-12T08:10:49.742Z,25.10
2022-08-12T08:13:17.443Z,24.10
2022-08-12T08:16:02.844Z,23.60
2022-08-12T08:18:31.373Z,23.30
2022-08-12T08:20:58.215Z,23.20
2022-08-12T08:23:56.481Z,23.10
2022-08-12T08:26:26.524Z,23.30
2022-08-12T08:48:09.183Z,25.00
2022-08-12T08:50:36.089Z,24.90
2022-08-12T08:53:02.990Z,24.70
2022-08-12T08:55:47.952Z,24.60
2022-08-12T08:58:18.599Z,24.50
2022-08-12T09:00:49.367Z,24.60
2022-08-12T09:05:12.547Z,24.80
2022-08-12T09:06:05.482Z,24.90
2022-08-12T09:08:33.806Z,24.90
2022-08-12T09:12:07.593Z,25.00
2022-08-12T09:14:18.570Z,25.00
2022-08-12T09:16:50.159Z,25.00
2022-08-12T09:19:27.769Z,25.10
2022-08-12T09:21:55.619Z,25.10
2022-08-12T09:24:22.716Z,25.10
2022-08-12T09:26:54.879Z,25.10
2022-08-12T09:30:11.011Z,25.20
2022-08-12T09:32:11.585Z,25.20
2022-08-12T09:34:56.783Z,25.20
2022-08-12T09:37:26.770Z,25.20
2022-08-12T09:40:00.886Z,25.20
2022-08-12T09:43:11.069Z,25.30
2022-08-12T09:46:19.297Z,25.30
2022-08-12T09:48:23.782Z,25.20
2022-08-12T09:50:55.106Z,25.20
2022-08-12T09:53:29.214Z,25.20
2022-08-12T09:56:56.653Z,25.20
2022-08-12T09:58:59.828Z,25.30
2022-08-12T10:01:35.750Z,25.30
2022-08-12T10:04:19.223Z,25.30
2022-08-12T10:06:54.029Z,25.20
2022-08-12T10:09:28.482Z,25.20
2022-08-12T10:12:32.821Z,25.20
2022-08-12T10:15:00.482Z,25.20
2022-08-12T10:17:27.711Z,25.30
2022-08-12T10:19:54.653Z,25.20
2022-08-12T10:22:39.240Z,25.30
2022-08-12T10:26:33.823Z,25.30
2022-08-12T10:28:33.109Z,25.30
2022-08-12T10:31:01.513Z,25.40
2022-08-12T10:33:31.941Z,25.30
2022-08-12T10:36:01.840Z,25.40
2022-08-12T10:38:34.509Z,25.40
2022-08-12T10:41:57.110Z,25.40
2022-08-12T10:44:17.568Z,25.40
2022-08-12T10:46:49.283Z,25.40
2022-08-12T10:50:02.634Z,25.40
2022-08-12T10:52:34.940Z,25.40
2022-08-12T10:54:56.071Z,25.50
2022-08-12T10:58:15.195Z,25.40
2022-08-12T11:00:34.162Z,25.50
2022-08-12T11:04:28.235Z,25.50
2022-08-12T11:07:09.189Z,25.50
2022-08-12T11:08:43.466Z,25.60
2022-08-12T11:12:35.094Z,25.60
2022-08-12T11:14:05.754Z,25.60
2022-08-12T11:16:33.881Z,25.60
2022-08-12T11:19:02.561Z,25.60
2022-08-12T11:21:56.071Z,25.70
2022-08-12T11:24:30.900Z,25.70
2022-08-12T11:27:01.690Z,25.70
2022-08-12T11:30:01.655Z,25.70
2022-08-12T11:32:23.432Z,25.70
2022-08-12T11:34:54.962Z,25.80
2022-08-12T11:37:26.539Z,25.80
2022-08-12T11:42:39.853Z,25.80
2022-08-12T11:45:16.333Z,25.80
2022-08-12T11:47:43.405Z,25.90
2022-08-12T11:50:11.920Z,25.90
2022-08-12T11:52:55.381Z,25.90
2022-08-12T11:55:25.528Z,26.00
2022-08-12T11:58:40.644Z,26.00
2022-08-12T12:03:43.943Z,26.10
2022-08-12T12:06:16.187Z,26.20
2022-08-12T12:08:50.419Z,26.20
2022-08-12T12:11:18.823Z,26.20
2022-08-12T12:14:07.656Z,26.30
2022-08-12T12:16:33.550Z,26.30
2022-08-12T12:19:05.573Z,26.30
2022-08-12T12:21:48.831Z,26.30
2022-08-12T12:24:21.276Z,26.30
2022-08-12T12:26:59.769Z,26.40
2022-08-12T12:30:19.354Z,26.40
2022-08-12T12:32:14.886Z,26.50
2022-08-12T12:35:14.131Z,26.50
2022-08-12T12:38:04.589Z,26.50
2022-08-12T12:40:16.043Z,26.50
2022-08-12T12:42:56.829Z,26.60
2022-08-12T12:45:32.534Z,26.60
2022-08-12T12:48:00.342Z,26.60
2022-08-12T12:51:09.341Z,26.60
2022-08-12T12:54:06.120Z,26.60
2022-08-12T12:56:34.584Z,26.70
2022-08-12T12:59:03.755Z,26.70
2022-08-12T13:01:38.200Z,26.80
2022-08-12T13:04:12.055Z,26.80
2022-08-12T13:06:41.899Z,26.80
2022-08-12T13:09:13.306Z,26.80
2022-08-12T13:11:42.027Z,26.70
2022-08-12T13:14:28.764Z,26.80
2022-08-12T13:17:02.309Z,26.80
2022-08-12T13:19:38.582Z,26.80
2022-08-12T13:22:19.273Z,26.80
2022-08-12T13:24:54.774Z,26.70
2022-08-12T13:27:37.957Z,26.70
2022-08-12T13:30:11.841Z,26.70
2022-08-12T13:32:41.824Z,26.80
2022-08-12T13:35:32.924Z,26.70
2022-08-12T13:37:58.039Z,26.70
2022-08-12T13:40:28.784Z,26.70
2022-08-12T13:42:58.153Z,26.80
2022-08-12T13:45:26.958Z,26.70
2022-08-12T13:48:00.286Z,26.70
2022-08-12T13:50:39.544Z,26.70
2022-08-12T13:53:24.437Z,26.70
2022-08-12T13:56:05.112Z,26.70
2022-08-12T13:58:34.666Z,26.80
2022-08-12T14:01:05.721Z,26.80
2022-08-12T14:03:51.150Z,26.80
2022-08-12T14:06:19.059Z,26.80
2022-08-12T14:08:49.996Z,26.80
2022-08-12T14:11:19.163Z,26.80
2022-08-12T14:14:04.260Z,26.80
2022-08-12T14:16:46.907Z,26.80
2022-08-12T14:19:22.564Z,26.80
2022-08-12T14:22:01.176Z,26.80
2022-08-12T14:24:35.684Z,26.70
2022-08-12T14:27:08.798Z,26.70
2022-08-12T14:30:03.936Z,26.70
2022-08-12T14:32:26.454Z,26.70
2022-08-12T14:34:53.523Z,26.70
2022-08-12T14:37:53.014Z,26.70
2022-08-12T14:40:18.339Z,26.70
2022-08-12T14:42:47.049Z,26.80
2022-08-12T14:45:14.338Z,26.80
2022-08-12T14:47:50.021Z,26.70
2022-08-12T14:50:57.318Z,26.70
2022-08-12T14:59:23.575Z,26.80
2022-08-12T15:01:50.609Z,26.80
2022-08-12T15:04:26.116Z,26.80
2022-08-12T15:06:55.061Z,26.80
2022-08-12T15:09:29.350Z,26.80
2022-08-12T15:12:03.325Z,26.80
2022-08-12T15:14:31.812Z,26.80
2022-08-12T15:17:00.162Z,26.80
2022-08-12T15:20:07.547Z,26.80
2022-08-12T15:22:37.170Z,26.70
2022-08-12T15:25:07.630Z,26.70
2022-08-12T15:28:05.845Z,26.70
2022-08-12T15:30:31.500Z,26.70
2022-08-12T15:32:59.037Z,26.70
2022-08-12T15:35:31.189Z,26.80
2022-08-12T15:38:10.192Z,26.70
2022-08-12T15:40:46.832Z,26.80
2022-08-12T15:43:51.043Z,26.70
2022-08-12T15:46:06.366Z,26.70
2022-08-12T15:48:34.126Z,26.60
2022-08-12T15:51:04.270Z,26.60
2022-08-12T15:53:53.311Z,26.60
2022-08-12T15:56:29.452Z,26.50
2022-08-12T15:59:00.613Z,26.60
2022-08-12T16:01:35.244Z,26.50
2022-08-12T16:04:05.543Z,26.50
2022-08-12T16:09:55.821Z,26.40
2022-08-12T16:12:12.032Z,26.40
2022-08-12T16:14:39.198Z,26.40
2022-08-12T16:17:08.750Z,26.30
2022-08-12T16:20:03.426Z,26.30
2022-08-12T16:22:26.590Z,26.30
2022-08-12T16:24:54.157Z,26.30
2022-08-12T16:27:23.732Z,26.30
2022-08-12T16:29:57.279Z,26.30
2022-08-12T16:32:31.959Z,26.20
2022-08-12T16:35:00.084Z,26.20
2022-08-12T16:37:32.439Z,26.20
2022-08-12T16:40:18.861Z,26.20
2022-08-12T16:42:54.094Z,26.20
2022-08-12T16:46:23.551Z,26.20
2022-08-12T16:48:34.825Z,26.20
2022-08-12T16:51:06.080Z,26.20
2022-08-12T16:53:43.791Z,26.20
2022-08-12T16:56:14.372Z,26.20
2022-08-12T16:58:42.304Z,26.20
2022-08-12T17:01:13.856Z,26.20
2022-08-12T17:03:47.241Z,26.20
2022-08-12T17:06:22.190Z,26.10
2022-08-12T17:08:55.523Z,26.20
2022-08-12T17:11:22.894Z,26.20
2022-08-12T17:13:53.609Z,26.20
2022-08-12T17:16:21.481Z,26.10
2022-08-12T17:18:57.527Z,26.10
2022-08-12T17:21:41.029Z,26.10
2022-08-12T17:24:21.566Z,26.10
2022-08-12T17:26:51.215Z,26.10
2022-08-12T17:29:32.396Z,26.10
2022-08-12T17:32:10.194Z,26.10
2022-08-12T17:34:56.178Z,26.10
2022-08-12T17:37:23.076Z,26.10
2022-08-12T17:40:15.209Z,26.10
2022-08-12T17:42:47.284Z,26.10
2022-08-12T17:45:19.309Z,26.10
2022-08-12T17:48:04.843Z,26.10
2022-08-12T17:50:34.621Z,26.10
2022-08-12T17:53:03.215Z,26.10
2022-08-12T17:55:44.732Z,26.10
2022-08-12T17:58:16.323Z,26.10
2022-08-12T18:00:45.507Z,26.10
2022-08-12T18:04:05.146Z,26.10
2022-08-12T18:06:13.709Z,26.10
2022-08-12T18:08:54.484Z,26.00
2022-08-12T18:12:03.966Z,26.10
2022-08-12T18:14:29.736Z,26.10
2022-08-12T18:17:00.686Z,26.10
2022-08-12T18:20:04.108Z,26.10
2022-08-12T18:22:22.232Z,26.10
2022-08-12T18:25:05.168Z,26.10
2022-08-12T18:27:44.558Z,26.10
2022-08-12T18:30:21.043Z,26.10
2022-08-12T18:33:04.514Z,26.10
2022-08-12T18:35:46.469Z,26.10
2022-08-12T18:38:21.870Z,26.10
2022-08-12T18:41:09.626Z,26.10
2022-08-12T18:43:58.872Z,26.10
2022-08-12T18:46:32.391Z,26.10
2022-08-12T18:49:15.789Z,26.10
2022-08-12T18:51:55.514Z,26.10
2022-08-12T18:54:32.347Z,26.10
2022-08-12T18:57:02.314Z,26.10
2022-08-12T19:00:01.815Z,26.10
2022-08-12T19:02:21.512Z,26.10
2022-08-12T19:04:53.446Z,26.10
2022-08-12T19:07:24.597Z,26.10
2022-08-12T19:10:00.062Z,26.10
2022-08-12T19:12:56.931Z,26.10
2022-08-12T19:15:26.826Z,26.10
2022-08-12T19:17:56.359Z,26.10
2022-08-12T19:20:27.318Z,26.10
2022-08-12T19:22:59.731Z,26.10
2022-08-12T19:26:00.078Z,26.10
2022-08-12T19:28:19.458Z,26.10
2022-08-12T19:31:17.533Z,26.10
2022-08-12T19:34:00.844Z,26.10
2022-08-12T19:36:34.661Z,26.10
2022-08-12T19:39:02.926Z,26.10
2022-08-12T19:42:00.639Z,26.10
2022-08-12T19:44:28.873Z,26.10
2022-08-12T19:46:56.354Z,26.10
2022-08-12T19:49:23.228Z,26.10
2022-08-12T19:51:50.646Z,26.00
2022-08-12T19:54:30.198Z,26.00
2022-08-12T19:56:59.347Z,26.00
2022-08-12T19:59:43.308Z,26.00
2022-08-12T20:02:34.516Z,26.00
2022-08-12T20:06:07.230Z,26.00
2022-08-12T20:07:59.220Z,26.00
2022-08-12T20:10:35.550Z,26.00
2022-08-12T20:13:18.147Z,26.10
2022-08-12T20:15:51.152Z,26.10
2022-08-12T20:18:44.671Z,26.00
2022-08-12T20:21:17.103Z,26.10
2022-08-12T20:24:00.092Z,26.10
2022-08-12T20:26:28.033Z,26.10
2022-08-12T20:28:55.477Z,26.00
2022-08-12T20:31:22.554Z,26.00
2022-08-12T20:33:56.809Z,26.00
2022-08-12T20:36:40.713Z,26.00
2022-08-12T20:39:33.912Z,26.00
2022-08-12T20:42:02.427Z,26.00
2022-08-12T20:44:32.214Z,26.00
2022-08-12T20:47:17.856Z,25.90
2022-08-12T20:49:46.497Z,25.90
2022-08-12T20:52:22.585Z,25.90
2022-08-12T20:54:51.999Z,25.90
2022-08-12T20:57:21.001Z,25.90
2022-08-12T20:59:50.432Z,25.90
2022-08-12T21:02:24.513Z,25.90
2022-08-12T21:05:20.384Z,25.90
2022-08-12T21:07:52.307Z,25.90
2022-08-12T21:10:20.820Z,25.90
2022-08-12T21:12:48.719Z,25.90
2022-08-12T21:15:23.355Z,25.90
2022-08-12T21:18:11.500Z,25.90
2022-08-12T21:20:52.975Z,25.90
2022-08-12T21:23:21.479Z,25.90
2022-08-12T21:25:51.024Z,25.90
2022-08-12T21:28:20.494Z,25.90
2022-08-12T21:31:11.587Z,25.90
2022-08-12T21:33:58.436Z,25.80
2022-08-12T21:36:34.525Z,25.80
2022-08-12T21:39:18.814Z,25.90
2022-08-12T21:41:52.881Z,25.80
2022-08-12T21:44:24.615Z,25.80
2022-08-12T21:47:20.066Z,25.80
2022-08-12T21:50:02.415Z,25.80
2022-08-12T21:52:48.826Z,25.80
2022-08-12T21:55:19.704Z,25.80
2022-08-12T21:57:50.975Z,25.80
2022-08-12T22:00:32.161Z,25.80
2022-08-12T22:04:02.104Z,25.80
2022-08-12T22:06:26.075Z,25.80
2022-08-12T22:09:05.536Z,25.80
2022-08-12T22:11:42.100Z,25.80
2022-08-12T22:14:17.963Z,25.70
2022-08-12T22:16:54.307Z,25.70
2022-08-12T22:19:22.826Z,25.70
2022-08-12T22:21:53.303Z,25.70
2022-08-12T22:24:26.766Z,25.70
2022-08-12T22:27:08.353Z,25.70
2022-08-12T22:30:08.675Z,25.70
2022-08-12T22:32:50.462Z,25.70
2022-08-12T22:35:55.747Z,25.70
2022-08-12T22:38:24.884Z,25.70
2022-08-12T22:41:03.389Z,25.70
2022-08-12T22:43:59.820Z,25.60
2022-08-12T22:46:52.824Z,25.60
2022-08-12T22:49:36.977Z,25.60
2022-08-12T22:52:18.253Z,25.60
2022-08-12T22:54:46.268Z,25.60
2022-08-12T22:57:54.401Z,25.60
2022-08-12T23:00:24.539Z,25.60
2022-08-12T23:02:58.318Z,25.60
2022-08-12T23:05:36.801Z,25.60
2022-08-12T23:08:17.756Z,25.60
2022-08-12T23:10:46.354Z,25.60
2022-08-12T23:13:43.728Z,25.60
2022-08-12T23:16:18.080Z,25.60
2022-08-12T23:18:57.409Z,25.60
2022-08-12T23:21:24.497Z,25.50
2022-08-12T23:24:09.450Z,25.50
2022-08-12T23:26:56.139Z,25.50
2022-08-12T23:29:30.029Z,25.50
2022-08-12T23:32:13.466Z,25.50
2022-08-12T23:35:02.584Z,25.50
2022-08-12T23:37:47.746Z,25.40
2022-08-12T23:40:22.086Z,25.50
2022-08-12T23:42:49.431Z,25.50
2022-08-12T23:45:20.362Z,25.50
2022-08-12T23:48:03.268Z,25.50
2022-08-12T23:50:33.769Z,25.50
2022-08-12T23:53:05.414Z,25.50
2022-08-12T23:55:35.832Z,25.40
2022-08-12T23:58:21.824Z,25.40
